Airfield :
LOGIN :

Register | Disclaimer

   EN    FR    IT 

 










Legend :    VFR   Marginal VFR   IFR   Intensive IFR   Very Intensive IFR
Visi :
Ceiling :
>= 8 km
>= 3000ft
5 to 8 km
1000 to 3000 ft
1500m to 5 km
500 to 1000 ft
800 to 1500m
200 to 500 ft
< 800m
< 200 ft
Symbols :   Thunderstorms  Fog  Heavy snow  Heavy precipitations  Wind > 20 kt
SIGMETs :     Misc.  Thunderstorms  Icing  Turbulence  Mountain Waves  Volcanic Ashes






- Airport Elevation : 200 ft


EBBL - Klein Brogel AB

CURRENT METAR :
  • 161125Z 05009KT 9999 FEW052 10/M03 Q1027 BLU BLU

EXPIRED METARs :
  • 161055Z 02008KT 9999 FEW045 10/M02 Q1028 BLU BLU
  • 161025Z 03009KT 9999 FEW040 11/M01 Q1028 BLU BLU
  • 160955Z 03007KT 9999 FEW040 08/M01 Q1028 BLU BLU
  • 160925Z 01006KT 9999 FEW030 09/M00 Q1028 BLU BLU
  • 160855Z 03003KT 9999 FEW090 SCT250 08/01 Q1029 BLU BLU

TAF TAF EBBL
Valid from the 16 at 10:00 until the 16 at 19:00 UTC


160841Z 1610/1619 VRB03KT 9999 FEW100 SCT250
BECMG 1611/1613 02008KT BKN050 BKN080



MET'MAP, your aeronautical weather chart ! - Copyright ORBIFLY December 2007 - Disclaimer

ORBIFLY MET'MAP TEAM :

Programming & Development : Alexandra Zaïnal
Concept & original design : Baudouin d'Aumeries
Assistance for programming : Marc-Olivier Méhu
Technical & hardware support : Manuel Goepfert

Contact : metmap@orbifly.com




SOURCES & CREDITS :

   NOAA